Mattawamkeag, Maine
Current Conditions -  °F | °C
As of 10:53 AM on Thursday 23 Oct 2014 (Local Time) from KMLT Reporting Station
Light Rain Light Rain  
Wind Chill: 41°   Ceiling: 800
Heat Index: 47°   Visibility: 5mi
Dew Point: 44°   Wind: 14mph
Humidity: 90%   Direction: 40°NE
Pressure: 30.04"   Gusts: 23mph
Location:  45.51°N, 68.35°W
Report Text: KMLT 231453Z AUTO 04012G20KT 5SM -RA BR BKN008 OVC015 08/07 A3004 RMK AO2 CIG 006V012 SLP180 P0008 60016 T00830067 56014
Loading
Personal Weather Stations






























Interactive Weather Map
Tropical Storm Tracking
New forecast layout! Learn more

10-Day Weather Forecast

Advertisements
Track Severe Weather on mobile